createdAt,value
2022-09-14T00:00:30.417Z,15.14
2022-09-14T00:02:56.828Z,15.11
2022-09-14T00:05:23.207Z,15.10
2022-09-14T00:07:49.485Z,15.10
2022-09-14T00:10:15.787Z,15.11
2022-09-14T00:12:42.057Z,15.12
2022-09-14T00:15:08.578Z,15.14
2022-09-14T00:17:34.844Z,15.12
2022-09-14T00:20:02.350Z,15.08
2022-09-14T00:22:28.645Z,15.19
2022-09-14T00:24:54.954Z,15.05
2022-09-14T00:27:21.258Z,15.08
2022-09-14T00:29:48.631Z,15.23
2022-09-14T00:32:14.984Z,15.09
2022-09-14T00:34:41.335Z,15.07
2022-09-14T00:37:07.623Z,15.20
2022-09-14T00:39:33.934Z,15.17
2022-09-14T00:42:00.219Z,15.12
2022-09-14T00:44:26.506Z,15.08
2022-09-14T00:46:55.043Z,15.06
2022-09-14T00:49:30.868Z,14.99
2022-09-14T00:52:11.084Z,14.94
2022-09-14T00:54:46.627Z,14.95
2022-09-14T00:57:13.128Z,14.92
2022-09-14T00:59:40.824Z,14.95
2022-09-14T01:02:09.226Z,15.07
2022-09-14T01:04:36.655Z,15.18
2022-09-14T01:07:05.663Z,15.13
2022-09-14T01:09:36.827Z,15.00
2022-09-14T01:12:11.037Z,15.03
2022-09-14T01:14:50.548Z,14.92
2022-09-14T01:17:49.172Z,14.98
2022-09-14T01:20:25.816Z,14.86
2022-09-14T01:23:03.766Z,14.82
2022-09-14T01:25:45.309Z,14.82
2022-09-14T01:28:34.628Z,14.84
2022-09-14T01:31:03.542Z,14.81
2022-09-14T01:33:40.140Z,14.76
2022-09-14T01:36:07.605Z,14.91
2022-09-14T01:38:37.164Z,14.86
2022-09-14T01:41:06.372Z,14.97
2022-09-14T01:43:36.839Z,14.83
2022-09-14T01:46:06.288Z,14.90
2022-09-14T01:48:36.671Z,15.03
2022-09-14T01:51:04.737Z,15.13
2022-09-14T01:53:43.637Z,15.00
2022-09-14T01:56:15.967Z,14.99
2022-09-14T01:58:46.635Z,14.97
2022-09-14T02:01:15.416Z,14.97
2022-09-14T02:03:46.954Z,14.81
2022-09-14T02:06:22.961Z,14.73
2022-09-14T02:08:49.874Z,14.77
2022-09-14T02:11:16.595Z,14.84
2022-09-14T02:13:42.953Z,14.97
2022-09-14T02:16:09.555Z,14.78
2022-09-14T02:18:37.224Z,14.85
2022-09-14T02:21:08.966Z,14.85
2022-09-14T02:23:36.033Z,14.70
2022-09-14T02:26:02.405Z,14.79
2022-09-14T02:28:28.753Z,14.76
2022-09-14T02:31:10.145Z,14.72
2022-09-14T02:33:39.307Z,14.67
2022-09-14T02:36:08.170Z,14.69
2022-09-14T02:38:40.598Z,14.74
2022-09-14T02:41:15.514Z,14.83
2022-09-14T02:43:41.763Z,14.87
2022-09-14T02:46:11.196Z,14.88
2022-09-14T02:48:42.047Z,14.93
2022-09-14T02:51:21.641Z,14.86
2022-09-14T02:53:51.549Z,14.85
2022-09-14T02:56:18.592Z,14.81
2022-09-14T02:58:45.266Z,14.83
2022-09-14T03:01:13.351Z,14.84
2022-09-14T03:03:39.864Z,14.91
2022-09-14T03:06:06.507Z,15.04
2022-09-14T03:08:32.843Z,14.97
2022-09-14T03:10:59.264Z,15.01
2022-09-14T03:13:25.672Z,15.04
2022-09-14T03:15:52.172Z,15.02
2022-09-14T03:18:18.673Z,15.03
2022-09-14T03:20:45.105Z,15.04
2022-09-14T03:23:12.346Z,15.04
2022-09-14T03:25:40.011Z,15.01
2022-09-14T03:28:06.351Z,15.10
2022-09-14T03:30:33.113Z,15.06
2022-09-14T03:32:59.745Z,14.94
2022-09-14T03:35:27.590Z,14.91
2022-09-14T03:37:53.858Z,14.90
2022-09-14T03:40:22.019Z,14.96
2022-09-14T03:42:49.428Z,14.92
2022-09-14T03:45:16.588Z,14.93
2022-09-14T03:47:43.352Z,14.92
2022-09-14T03:50:10.705Z,14.90
2022-09-14T03:52:37.389Z,14.89
2022-09-14T03:55:04.407Z,15.01
2022-09-14T03:57:30.727Z,14.96
2022-09-14T03:59:57.067Z,14.94
2022-09-14T04:02:23.473Z,15.00
2022-09-14T04:04:49.832Z,15.03
2022-09-14T04:07:16.690Z,14.98
2022-09-14T04:09:43.141Z,14.97
2022-09-14T04:12:09.735Z,15.03
2022-09-14T04:14:36.046Z,15.06
2022-09-14T04:17:02.492Z,15.04
2022-09-14T04:19:28.807Z,15.06
2022-09-14T04:21:55.076Z,15.12
2022-09-14T04:24:22.138Z,15.13
2022-09-14T04:26:50.150Z,15.08
2022-09-14T04:29:16.454Z,15.06
2022-09-14T04:31:42.990Z,15.14
2022-09-14T04:34:11.123Z,15.28
2022-09-14T04:36:37.379Z,15.23
2022-09-14T04:39:03.743Z,15.11
2022-09-14T04:41:30.859Z,15.15
2022-09-14T04:43:57.194Z,15.23
2022-09-14T04:46:25.287Z,15.19
2022-09-14T04:48:51.786Z,15.15
2022-09-14T04:51:19.757Z,15.13
2022-09-14T04:53:47.535Z,15.13
2022-09-14T04:56:14.549Z,15.23
2022-09-14T04:58:51.438Z,15.19
2022-09-14T05:01:20.156Z,15.14
2022-09-14T05:03:46.775Z,15.11
2022-09-14T05:06:15.248Z,15.23
2022-09-14T05:08:41.968Z,15.18
2022-09-14T05:11:09.044Z,15.19
2022-09-14T05:13:35.687Z,15.17
2022-09-14T05:16:06.200Z,15.15
2022-09-14T05:18:32.822Z,15.16
2022-09-14T05:21:06.348Z,15.21
2022-09-14T05:23:34.904Z,15.27
2022-09-14T05:26:01.236Z,15.34
2022-09-14T05:28:27.743Z,15.38
2022-09-14T05:30:54.172Z,15.40
2022-09-14T05:33:20.858Z,15.39
2022-09-14T05:35:47.880Z,15.41
2022-09-14T05:38:14.356Z,15.43
2022-09-14T05:40:40.819Z,15.48
2022-09-14T05:43:07.479Z,15.49
2022-09-14T05:45:34.269Z,15.53
2022-09-14T05:48:01.654Z,15.60
2022-09-14T05:50:28.066Z,15.67
2022-09-14T05:52:55.109Z,15.85
2022-09-14T05:55:21.384Z,15.82
2022-09-14T05:57:50.594Z,15.75
2022-09-14T06:00:17.363Z,15.70
2022-09-14T06:02:50.840Z,15.69
2022-09-14T06:05:17.591Z,15.72
2022-09-14T06:07:44.064Z,15.72
2022-09-14T06:10:10.913Z,15.76
2022-09-14T06:12:37.306Z,15.87
2022-09-14T06:15:03.955Z,15.82
2022-09-14T06:17:30.634Z,15.89
2022-09-14T06:19:59.996Z,15.86
2022-09-14T06:22:28.616Z,15.99
2022-09-14T06:24:54.901Z,15.91
2022-09-14T06:27:21.200Z,15.96
2022-09-14T06:29:52.041Z,16.08
2022-09-14T06:32:19.105Z,15.97
2022-09-14T06:34:45.672Z,15.94
2022-09-14T06:37:12.060Z,15.99
2022-09-14T06:39:38.487Z,15.97
2022-09-14T06:42:04.970Z,16.03
2022-09-14T06:44:31.319Z,16.27
2022-09-14T06:46:57.794Z,16.21
2022-09-14T06:49:24.089Z,16.34
2022-09-14T06:51:50.713Z,16.22
2022-09-14T06:54:17.968Z,16.29
2022-09-14T06:56:45.142Z,16.29
2022-09-14T06:59:12.569Z,16.26
2022-09-14T07:01:39.125Z,16.37
2022-09-14T07:04:06.180Z,16.37
2022-09-14T07:06:38.858Z,16.41
2022-09-14T07:09:05.345Z,16.54
2022-09-14T07:11:32.102Z,16.53
2022-09-14T07:14:02.160Z,16.53
2022-09-14T07:16:29.879Z,16.40
2022-09-14T07:18:56.932Z,16.48
2022-09-14T07:21:23.961Z,16.42
2022-09-14T07:23:50.524Z,16.33
2022-09-14T07:26:21.293Z,16.34
2022-09-14T07:28:49.005Z,16.54
2022-09-14T07:31:21.383Z,16.54
2022-09-14T07:33:48.431Z,16.52
2022-09-14T07:36:15.093Z,16.68
2022-09-14T07:39:01.084Z,16.63
2022-09-14T07:41:29.424Z,16.67
2022-09-14T07:43:57.168Z,16.72
2022-09-14T07:46:24.013Z,16.69
2022-09-14T07:48:54.901Z,16.68
2022-09-14T07:51:22.204Z,16.75
2022-09-14T07:53:48.468Z,16.66
2022-09-14T07:56:16.760Z,16.62
2022-09-14T07:58:43.335Z,16.82
2022-09-14T08:01:12.048Z,16.74
2022-09-14T08:03:42.078Z,16.69
2022-09-14T08:06:13.097Z,16.60
2022-09-14T08:08:40.565Z,16.62
2022-09-14T08:11:09.279Z,16.59
2022-09-14T08:13:35.832Z,16.55
2022-09-14T08:16:02.395Z,16.67
2022-09-14T08:18:29.488Z,16.56
2022-09-14T08:20:55.980Z,16.69
2022-09-14T08:23:22.547Z,16.65
2022-09-14T08:25:48.851Z,16.73
2022-09-14T08:28:15.122Z,16.77
2022-09-14T08:30:41.579Z,16.63
2022-09-14T08:33:07.834Z,16.79
2022-09-14T08:35:56.558Z,16.81
2022-09-14T08:38:20.492Z,16.77
2022-09-14T08:40:47.215Z,16.83
2022-09-14T08:43:14.366Z,16.80
2022-09-14T08:45:43.045Z,16.78
2022-09-14T08:48:14.841Z,16.89
2022-09-14T08:50:42.098Z,16.84
2022-09-14T08:53:08.522Z,16.77
2022-09-14T08:55:41.543Z,16.83
2022-09-14T08:58:15.434Z,16.79
2022-09-14T09:00:56.749Z,16.77
2022-09-14T09:03:23.236Z,16.72
2022-09-14T09:06:06.293Z,16.66
2022-09-14T09:08:44.585Z,16.64
2022-09-14T09:11:14.698Z,16.71
2022-09-14T09:13:42.699Z,16.70
2022-09-14T09:16:10.311Z,16.57
2022-09-14T09:18:42.484Z,16.51
2022-09-14T09:21:13.612Z,16.46
2022-09-14T09:23:40.981Z,16.47
2022-09-14T09:26:13.400Z,16.46
2022-09-14T09:28:44.494Z,16.38
2022-09-14T09:31:14.848Z,16.33
2022-09-14T09:33:41.744Z,16.26
2022-09-14T09:36:09.375Z,16.26
2022-09-14T09:38:35.722Z,16.29
2022-09-14T09:41:05.954Z,16.24
2022-09-14T09:43:49.289Z,16.23
2022-09-14T09:46:17.329Z,16.22
2022-09-14T09:48:45.133Z,16.18
2022-09-14T09:51:26.543Z,16.20
2022-09-14T09:53:55.887Z,16.26
2022-09-14T09:56:30.621Z,16.41
2022-09-14T09:58:56.899Z,16.62
2022-09-14T10:01:26.321Z,16.67
2022-09-14T10:04:06.327Z,16.68
2022-09-14T10:06:40.351Z,16.78
2022-09-14T10:09:12.990Z,16.80
2022-09-14T10:11:39.415Z,16.81
2022-09-14T10:14:17.595Z,16.85
2022-09-14T10:16:44.275Z,17.02
2022-09-14T10:19:24.524Z,17.09
2022-09-14T10:22:05.032Z,17.18
2022-09-14T10:24:33.226Z,17.07
2022-09-14T10:26:59.580Z,16.98
2022-09-14T10:29:41.390Z,16.99
2022-09-14T10:32:17.655Z,16.85
2022-09-14T10:34:44.169Z,16.97
2022-09-14T10:37:24.368Z,16.99
2022-09-14T10:39:58.980Z,17.08
2022-09-14T10:42:30.033Z,17.07
2022-09-14T10:44:56.278Z,17.12
2022-09-14T10:47:41.175Z,17.13
2022-09-14T10:50:26.385Z,17.24
2022-09-14T10:53:09.410Z,17.32
2022-09-14T10:55:42.242Z,17.37
2022-09-14T10:58:21.272Z,17.47
2022-09-14T11:01:03.055Z,17.39
2022-09-14T11:03:47.820Z,17.39
2022-09-14T11:06:37.680Z,17.48
2022-09-14T11:09:09.271Z,17.44
2022-09-14T11:11:52.207Z,17.37
2022-09-14T11:14:21.487Z,17.29
2022-09-14T11:17:06.712Z,17.38
2022-09-14T11:19:57.229Z,17.39
2022-09-14T11:22:46.836Z,17.31
2022-09-14T11:25:18.649Z,17.25
2022-09-14T11:27:44.892Z,17.22
2022-09-14T11:30:16.413Z,17.23
2022-09-14T11:32:45.754Z,17.27
2022-09-14T11:35:17.960Z,17.20
2022-09-14T11:37:50.416Z,17.20
2022-09-14T11:40:24.088Z,17.32
2022-09-14T11:43:04.322Z,17.21
2022-09-14T11:45:33.830Z,17.18
2022-09-14T11:48:40.860Z,17.11
2022-09-14T11:51:02.139Z,17.15
2022-09-14T11:53:29.166Z,17.15
2022-09-14T11:55:55.511Z,17.23
2022-09-14T11:58:23.593Z,17.32
2022-09-14T12:00:49.901Z,17.33
2022-09-14T12:03:20.394Z,17.14
2022-09-14T12:05:47.641Z,17.18
2022-09-14T12:08:32.816Z,17.14
2022-09-14T12:11:22.413Z,17.18
2022-09-14T12:13:48.820Z,17.29
2022-09-14T12:16:15.413Z,17.35
2022-09-14T12:18:42.781Z,17.35
2022-09-14T12:21:24.524Z,17.30
2022-09-14T12:23:53.245Z,17.30
2022-09-14T12:26:22.683Z,17.24
2022-09-14T12:28:50.729Z,17.28
2022-09-14T12:31:36.212Z,17.24
2022-09-14T12:34:31.868Z,17.14
2022-09-14T12:37:00.328Z,17.11
2022-09-14T12:39:34.113Z,17.14
2022-09-14T12:42:00.383Z,17.14
2022-09-14T12:44:33.857Z,17.09
2022-09-14T12:47:18.755Z,17.06
2022-09-14T12:49:46.112Z,17.00
2022-09-14T12:52:18.453Z,17.05
2022-09-14T12:55:05.748Z,17.00
2022-09-14T12:57:37.608Z,16.98
2022-09-14T13:00:15.217Z,16.94
2022-09-14T13:02:54.764Z,16.88
2022-09-14T13:05:23.826Z,16.77
2022-09-14T13:07:50.673Z,16.77
2022-09-14T13:10:18.766Z,16.83
2022-09-14T13:12:45.847Z,16.96
2022-09-14T13:15:26.253Z,16.99
2022-09-14T13:18:15.688Z,16.96
2022-09-14T13:20:49.000Z,16.96
2022-09-14T13:23:22.264Z,16.96
2022-09-14T13:25:49.029Z,16.88
2022-09-14T13:28:18.029Z,16.84
2022-09-14T13:30:53.535Z,16.74
2022-09-14T13:33:19.840Z,16.63
2022-09-14T13:35:51.013Z,16.69
2022-09-14T13:38:18.660Z,16.67
2022-09-14T13:40:45.856Z,16.77
2022-09-14T13:43:12.566Z,16.83
2022-09-14T13:45:39.362Z,16.74
2022-09-14T13:48:06.281Z,16.75
2022-09-14T13:50:33.357Z,16.70
2022-09-14T13:53:03.158Z,16.58
2022-09-14T13:55:33.431Z,16.60
2022-09-14T13:58:05.994Z,16.63
2022-09-14T14:00:33.161Z,16.70
2022-09-14T14:03:00.879Z,16.78
2022-09-14T14:05:32.065Z,16.72
2022-09-14T14:08:00.315Z,16.65
2022-09-14T14:10:38.676Z,16.68
2022-09-14T14:13:05.342Z,16.73
2022-09-14T14:15:34.723Z,16.58
2022-09-14T14:18:01.053Z,16.62
2022-09-14T14:20:32.028Z,16.72
2022-09-14T14:23:13.396Z,16.73
2022-09-14T14:25:45.783Z,16.71
2022-09-14T14:28:39.549Z,16.73
2022-09-14T14:31:09.055Z,16.86
2022-09-14T14:33:36.902Z,16.95
2022-09-14T14:36:09.302Z,16.90
2022-09-14T14:38:35.884Z,16.88
2022-09-14T14:41:02.805Z,16.97
2022-09-14T14:43:29.160Z,16.95
2022-09-14T14:46:00.016Z,16.98
2022-09-14T14:48:27.717Z,17.03
2022-09-14T14:50:55.543Z,16.99
2022-09-14T14:53:22.667Z,17.03
2022-09-14T14:55:49.035Z,17.04
2022-09-14T14:58:16.423Z,16.98
2022-09-14T15:00:43.083Z,17.00
2022-09-14T15:03:09.772Z,17.03
2022-09-14T15:05:39.891Z,17.06
2022-09-14T15:08:06.165Z,17.05
2022-09-14T15:10:32.603Z,17.06
2022-09-14T15:12:58.876Z,16.97
2022-09-14T15:15:25.976Z,16.97
2022-09-14T15:17:52.778Z,17.03
2022-09-14T15:20:19.793Z,17.12
2022-09-14T15:22:46.398Z,17.03
2022-09-14T15:25:13.356Z,16.99
2022-09-14T15:27:40.646Z,17.04
2022-09-14T15:30:08.429Z,17.05
2022-09-14T15:32:34.994Z,17.05
2022-09-14T15:35:02.674Z,17.03
2022-09-14T15:37:28.952Z,17.18
2022-09-14T15:39:55.338Z,17.11
2022-09-14T15:42:21.693Z,17.07
2022-09-14T15:44:47.969Z,17.05
2022-09-14T15:47:14.821Z,17.08
2022-09-14T15:49:42.426Z,17.06
2022-09-14T15:52:09.469Z,17.06
2022-09-14T15:54:37.219Z,17.06
2022-09-14T15:57:04.304Z,17.07
2022-09-14T15:59:30.579Z,17.05
2022-09-14T16:01:56.915Z,17.06
2022-09-14T16:04:23.496Z,17.06
2022-09-14T16:06:49.954Z,17.05
2022-09-14T16:09:17.291Z,17.11
2022-09-14T16:11:43.559Z,17.07
2022-09-14T16:14:10.686Z,17.05
2022-09-14T16:16:37.807Z,17.02
2022-09-14T16:19:05.689Z,17.02
2022-09-14T16:21:32.005Z,17.05
2022-09-14T16:23:59.511Z,16.93
2022-09-14T16:26:31.748Z,16.90
2022-09-14T16:28:58.675Z,16.91
2022-09-14T16:31:30.650Z,16.92
2022-09-14T16:33:58.048Z,16.88
2022-09-14T16:36:28.608Z,16.84
2022-09-14T16:38:59.043Z,16.88
2022-09-14T16:41:26.008Z,16.86
2022-09-14T16:43:55.962Z,16.82
2022-09-14T16:46:22.745Z,16.83
2022-09-14T16:48:51.880Z,16.84
2022-09-14T16:51:19.781Z,16.86
2022-09-14T16:53:46.993Z,16.89
2022-09-14T16:56:19.074Z,16.90
2022-09-14T16:58:46.126Z,16.79
2022-09-14T17:01:17.187Z,16.63
2022-09-14T17:03:44.694Z,16.74
2022-09-14T17:06:14.090Z,16.86
2022-09-14T17:08:43.823Z,16.74
2022-09-14T17:11:13.768Z,16.79
2022-09-14T17:13:40.404Z,16.78
2022-09-14T17:16:08.920Z,16.67
2022-09-14T17:18:36.349Z,16.65
2022-09-14T17:21:06.025Z,16.62
2022-09-14T17:23:32.463Z,16.55
2022-09-14T17:25:58.884Z,16.55
2022-09-14T17:28:26.954Z,16.55
2022-09-14T17:30:54.044Z,16.56
2022-09-14T17:33:20.991Z,16.54
2022-09-14T17:35:48.347Z,16.55
2022-09-14T17:38:15.241Z,16.52
2022-09-14T17:40:41.767Z,16.38
2022-09-14T17:43:08.344Z,16.44
2022-09-14T17:45:34.802Z,16.57
2022-09-14T17:48:01.374Z,16.56
2022-09-14T17:50:27.864Z,16.62
2022-09-14T17:52:54.132Z,16.38
2022-09-14T17:55:20.956Z,16.46
2022-09-14T17:57:47.314Z,16.37
2022-09-14T18:00:14.693Z,16.34
2022-09-14T18:02:41.061Z,16.32
2022-09-14T18:05:07.520Z,16.25
2022-09-14T18:07:33.869Z,16.37
2022-09-14T18:10:00.417Z,16.24
2022-09-14T18:12:26.787Z,16.19
2022-09-14T18:14:53.077Z,16.28
2022-09-14T18:17:19.355Z,16.34
2022-09-14T18:19:46.441Z,16.24
2022-09-14T18:22:12.799Z,16.13
2022-09-14T18:24:39.050Z,16.03
2022-09-14T18:27:05.381Z,15.97
2022-09-14T18:29:33.628Z,16.04
2022-09-14T18:31:59.897Z,16.07
2022-09-14T18:34:26.251Z,16.14
2022-09-14T18:36:52.592Z,16.10
2022-09-14T18:39:18.857Z,16.10
2022-09-14T18:41:45.246Z,16.22
2022-09-14T18:44:11.576Z,16.20
2022-09-14T18:46:37.932Z,16.28
2022-09-14T18:49:04.368Z,16.27
2022-09-14T18:51:31.451Z,16.21
2022-09-14T18:53:58.555Z,16.10
2022-09-14T18:56:25.108Z,16.10
2022-09-14T18:58:51.417Z,16.12
2022-09-14T19:01:17.989Z,16.10
2022-09-14T19:03:44.675Z,16.13
2022-09-14T19:06:12.584Z,16.07
2022-09-14T19:08:39.155Z,16.03
2022-09-14T19:11:05.541Z,16.06
2022-09-14T19:13:31.951Z,16.09
2022-09-14T19:15:58.333Z,16.00
2022-09-14T19:18:24.819Z,15.93
2022-09-14T19:21:05.777Z,15.93
2022-09-14T19:23:33.220Z,15.89
2022-09-14T19:26:06.165Z,15.93
2022-09-14T19:28:32.991Z,15.81
2022-09-14T19:30:59.383Z,15.67
2022-09-14T19:33:25.731Z,15.61
2022-09-14T19:35:51.989Z,15.78
2022-09-14T19:38:18.253Z,15.67
2022-09-14T19:40:52.357Z,15.71
2022-09-14T19:43:18.777Z,15.72
2022-09-14T19:45:45.155Z,15.61
2022-09-14T19:48:11.534Z,15.58
2022-09-14T19:50:37.843Z,15.59
2022-09-14T19:53:04.740Z,15.57
2022-09-14T19:55:31.332Z,15.50
2022-09-14T19:57:57.617Z,15.47
2022-09-14T20:00:23.905Z,15.46
2022-09-14T20:02:50.618Z,15.41
2022-09-14T20:05:17.012Z,15.46
2022-09-14T20:07:43.404Z,15.44
2022-09-14T20:10:09.932Z,15.37
2022-09-14T20:12:36.184Z,15.48
2022-09-14T20:15:02.508Z,15.59
2022-09-14T20:17:28.769Z,15.61
2022-09-14T20:19:55.089Z,15.53
2022-09-14T20:22:21.346Z,15.51
2022-09-14T20:24:47.730Z,15.49
2022-09-14T20:27:14.003Z,15.49
2022-09-14T20:29:40.262Z,15.42
2022-09-14T20:32:06.688Z,15.38
2022-09-14T20:34:34.317Z,15.33
2022-09-14T20:37:00.752Z,15.26
2022-09-14T20:39:27.251Z,15.12
2022-09-14T20:41:53.527Z,15.24
2022-09-14T20:44:22.302Z,15.35
2022-09-14T20:46:49.068Z,15.24
2022-09-14T20:49:17.251Z,15.38
2022-09-14T20:51:43.786Z,15.24
2022-09-14T20:54:11.509Z,15.23
2022-09-14T20:56:37.779Z,15.20
2022-09-14T20:59:05.459Z,15.21
2022-09-14T21:01:32.562Z,15.23
2022-09-14T21:04:04.085Z,15.29
2022-09-14T21:06:30.391Z,15.36
2022-09-14T21:08:56.850Z,15.31
2022-09-14T21:11:24.244Z,15.26
2022-09-14T21:13:51.520Z,15.34
2022-09-14T21:16:19.253Z,15.46
2022-09-14T21:18:46.633Z,15.41
2022-09-14T21:21:14.434Z,15.29
2022-09-14T21:23:41.141Z,15.22
2022-09-14T21:26:08.231Z,15.27
2022-09-14T21:28:35.052Z,15.34
2022-09-14T21:31:05.187Z,15.48
2022-09-14T21:33:32.428Z,15.46
2022-09-14T21:36:06.000Z,15.25
2022-09-14T21:38:32.722Z,15.15
2022-09-14T21:40:59.216Z,15.10
2022-09-14T21:43:25.758Z,15.03
2022-09-14T21:45:52.562Z,14.96
2022-09-14T21:48:18.924Z,14.83
2022-09-14T21:50:47.394Z,14.78
2022-09-14T21:53:13.941Z,14.66
2022-09-14T21:55:40.765Z,14.69
2022-09-14T21:58:07.266Z,14.68
2022-09-14T22:00:34.207Z,14.79
2022-09-14T22:03:00.664Z,14.74
2022-09-14T22:05:27.036Z,14.80
2022-09-14T22:07:53.593Z,14.91
2022-09-14T22:10:19.949Z,14.89
2022-09-14T22:12:47.771Z,14.67
2022-09-14T22:15:15.901Z,14.85
2022-09-14T22:17:42.186Z,14.62
2022-09-14T22:20:08.490Z,14.73
2022-09-14T22:22:34.805Z,14.79
2022-09-14T22:25:01.072Z,14.65
2022-09-14T22:27:27.335Z,14.78
2022-09-14T22:29:53.672Z,14.67
2022-09-14T22:32:21.689Z,14.65
2022-09-14T22:34:50.421Z,14.60
2022-09-14T22:37:16.732Z,14.54
2022-09-14T22:39:42.994Z,14.38
2022-09-14T22:42:09.323Z,14.27
2022-09-14T22:44:35.766Z,14.28
2022-09-14T22:47:02.034Z,14.43
2022-09-14T22:49:28.389Z,14.38
2022-09-14T22:51:57.340Z,14.19
2022-09-14T22:54:23.913Z,14.33
2022-09-14T22:56:50.426Z,14.39
2022-09-14T22:59:16.752Z,14.33
2022-09-14T23:01:43.271Z,14.35
2022-09-14T23:04:12.833Z,14.27
2022-09-14T23:06:40.865Z,14.40
2022-09-14T23:09:08.191Z,14.26
2022-09-14T23:11:34.808Z,14.45
2022-09-14T23:14:01.115Z,14.46
2022-09-14T23:16:29.046Z,14.26
2022-09-14T23:18:59.777Z,14.30
2022-09-14T23:21:26.538Z,14.45
2022-09-14T23:23:53.938Z,14.40
2022-09-14T23:26:20.673Z,14.37
2022-09-14T23:28:54.121Z,14.20
2022-09-14T23:31:20.772Z,14.12
2022-09-14T23:33:50.895Z,14.15
2022-09-14T23:36:17.451Z,14.15
2022-09-14T23:38:43.767Z,13.99
2022-09-14T23:41:11.727Z,14.12
2022-09-14T23:43:38.023Z,14.03
2022-09-14T23:46:04.350Z,13.96
2022-09-14T23:48:30.699Z,14.11
2022-09-14T23:50:58.162Z,13.98
2022-09-14T23:53:24.466Z,14.19
2022-09-14T23:55:50.978Z,14.20
2022-09-14T23:58:17.446Z,14.20
